This is the latest recevied weather packets stored in our database for station/object 9M4GEK-3. If no packets are shown the sender has not sent any weather packets the latest 10 day(s).
| Time | Temp. | Humidity | Pressure | Rain* | Wind** | Luminosity | Snow |
|---|---|---|---|---|---|---|---|
| 1787880962 | 40° C | 36% | 1012 hPa | - | - | - | - |
| 1787880062 | 39.44° C | 36% | 1011.8 hPa | - | - | - | - |
| 1787879161 | 35° C | 44% | 1011.6 hPa | - | - | - | - |
| 1787878261 | 32.78° C | 50% | 1011.4 hPa | - | - | - | - |
| 1787877362 | 30.56° C | 54% | 1011.5 hPa | - | - | - | - |
| 1787876461 | 30° C | 58% | 1011.4 hPa | - | - | - | - |
| 1787875562 | 29.44° C | 61% | 1011.3 hPa | - | - | - | - |
| 1787874662 | 28.33° C | 65% | 1011.1 hPa | - | - | - | - |
| 1787873762 | 27.22° C | 66% | 1011.6 hPa | - | - | - | - |
| 1787872862 | 27.22° C | 66% | 1011.9 hPa | - | - | - | - |
| 1787871968 | 27.22° C | 67% | 1011.8 hPa | - | - | - | - |
| 1787871063 | 27.22° C | 69% | 1011.9 hPa | - | - | - | - |
| 1787870163 | 27.22° C | 71% | 1011.8 hPa | - | - | - | - |
| 1787869263 | 27.78° C | 69% | 1011.2 hPa | - | - | - | - |
| 1787868362 | 27.78° C | 69% | 1010.9 hPa | - | - | - | - |
| 1787867463 | 28.33° C | 68% | 1010.7 hPa | - | - | - | - |
| 1787866563 | 28.33° C | 67% | 1010.5 hPa | - | - | - | - |
| 1787865663 | 28.89° C | 66% | 1010.5 hPa | - | - | - | - |
| 1787864763 | 28.89° C | 66% | 1010.1 hPa | - | - | - | - |
| 1787863864 | 28.89° C | 66% | 1009.9 hPa | - | - | - | - |
| 1787862964 | 28.89° C | 66% | 1009.6 hPa | - | - | - | - |
| 1787862064 | 28.89° C | 67% | 1009.6 hPa | - | - | - | - |
| 1787861164 | 28.89° C | 68% | 1009.7 hPa | - | - | - | - |
| 1787860263 | 28.33° C | 68% | 1009.8 hPa | - | - | - | - |
| 1787859363 | 28.89° C | 68% | 1010.1 hPa | - | - | - | - |
* Rain since midnight (hover to see other rain measurements)
** Current wind speed in m/s (hover to see current wind gust speed)